createdAt,value
2024-02-01T00:00:38.089Z,3.30
2024-02-01T00:03:04.922Z,3.63
2024-02-01T00:05:31.715Z,3.78
2024-02-01T00:07:58.606Z,3.25
2024-02-01T00:10:25.289Z,3.60
2024-02-01T00:12:51.931Z,3.38
2024-02-01T00:15:18.642Z,2.95
2024-02-01T00:17:45.404Z,3.30
2024-02-01T00:20:12.490Z,3.20
2024-02-01T00:22:39.186Z,3.35
2024-02-01T00:25:06.320Z,3.50
2024-02-01T00:27:33.008Z,3.75
2024-02-01T00:30:01.456Z,3.80
2024-02-01T00:32:28.176Z,3.60
2024-02-01T00:34:54.942Z,3.50
2024-02-01T00:37:21.654Z,3.83
2024-02-01T00:39:48.425Z,3.33
2024-02-01T00:42:15.185Z,3.70
2024-02-01T00:44:42.150Z,3.45
2024-02-01T00:47:08.996Z,3.63
2024-02-01T00:49:36.312Z,3.20
2024-02-01T00:52:03.734Z,3.20
2024-02-01T00:54:31.439Z,3.33
2024-02-01T00:56:58.384Z,3.05
2024-02-01T00:59:25.369Z,3.40
2024-02-01T01:01:52.137Z,3.35
2024-02-01T01:04:19.007Z,3.40
2024-02-01T01:06:45.717Z,3.20
2024-02-01T01:09:12.465Z,3.22
2024-02-01T01:11:39.331Z,3.67
2024-02-01T01:14:06.524Z,3.28
2024-02-01T01:16:33.540Z,3.70
2024-02-01T01:19:00.527Z,3.70
2024-02-01T01:21:29.147Z,3.50
2024-02-01T01:23:55.905Z,3.00
2024-02-01T01:26:26.986Z,2.90
2024-02-01T01:28:54.835Z,2.97
2024-02-01T01:31:24.555Z,3.28
2024-02-01T01:33:51.384Z,2.78
2024-02-01T01:36:18.197Z,2.75
2024-02-01T01:38:44.901Z,3.30
2024-02-01T01:41:11.748Z,3.08
2024-02-01T01:43:38.589Z,2.78
2024-02-01T01:46:06.094Z,3.03
2024-02-01T01:48:34.643Z,3.20
2024-02-01T01:51:02.381Z,3.00
2024-02-01T01:53:32.072Z,3.40
2024-02-01T01:55:58.773Z,2.95
2024-02-01T01:58:28.920Z,2.85
2024-02-01T02:00:58.252Z,2.63
2024-02-01T02:03:28.670Z,3.15
2024-02-01T02:05:58.800Z,3.08
2024-02-01T02:08:25.859Z,2.63
2024-02-01T02:10:53.770Z,3.22
2024-02-01T02:13:20.616Z,2.80
2024-02-01T02:15:47.827Z,2.58
2024-02-01T02:18:14.835Z,3.17
2024-02-01T02:20:45.648Z,3.25
2024-02-01T02:23:12.932Z,2.90
2024-02-01T02:25:41.457Z,3.22
2024-02-01T02:28:08.153Z,2.47
2024-02-01T02:30:34.883Z,2.70
2024-02-01T02:33:02.932Z,2.78
2024-02-01T02:35:29.948Z,2.63
2024-02-01T02:37:59.744Z,2.72
2024-02-01T02:40:26.442Z,2.67
2024-02-01T02:42:53.111Z,2.75
2024-02-01T02:45:20.851Z,2.65
2024-02-01T02:47:48.643Z,2.88
2024-02-01T02:50:15.889Z,2.35
2024-02-01T02:52:44.676Z,2.60
2024-02-01T02:55:12.074Z,2.50
2024-02-01T02:57:39.163Z,2.38
2024-02-01T03:00:07.599Z,2.47
2024-02-01T03:02:34.927Z,2.42
2024-02-01T03:05:02.741Z,2.78
2024-02-01T03:07:29.857Z,2.90
2024-02-01T03:09:56.620Z,2.33
2024-02-01T03:12:23.312Z,2.70
2024-02-01T03:14:51.787Z,2.45
2024-02-01T03:17:19.614Z,2.50
2024-02-01T03:19:51.418Z,2.38
2024-02-01T03:22:21.942Z,2.40
2024-02-01T03:24:59.970Z,2.28
2024-02-01T03:27:27.099Z,2.25
2024-02-01T03:29:53.900Z,2.22
2024-02-01T03:32:20.760Z,1.95
2024-02-01T03:34:47.583Z,2.10
2024-02-01T03:37:16.373Z,1.80
2024-02-01T03:39:43.684Z,2.15
2024-02-01T03:42:10.969Z,2.13
2024-02-01T03:44:40.655Z,2.25
2024-02-01T03:47:11.187Z,2.10
2024-02-01T03:49:41.053Z,2.25
2024-02-01T03:52:11.123Z,2.20
2024-02-01T03:54:39.195Z,2.80
2024-02-01T03:57:06.639Z,2.80
2024-02-01T03:59:33.846Z,2.88
2024-02-01T04:02:05.169Z,2.60
2024-02-01T04:04:32.716Z,2.72
2024-02-01T04:06:59.867Z,2.75
2024-02-01T04:09:28.859Z,2.75
2024-02-01T04:11:56.045Z,2.88
2024-02-01T04:14:23.294Z,3.00
2024-02-01T04:16:50.014Z,3.15
2024-02-01T04:19:16.954Z,2.83
2024-02-01T04:21:47.920Z,3.22
2024-02-01T04:24:15.048Z,3.13
2024-02-01T04:26:41.916Z,2.83
2024-02-01T04:29:11.242Z,2.92
2024-02-01T04:31:38.436Z,2.65
2024-02-01T04:34:05.550Z,2.80
2024-02-01T04:36:32.681Z,2.70
2024-02-01T04:38:59.365Z,2.47
2024-02-01T04:41:28.072Z,3.05
2024-02-01T04:43:56.391Z,3.53
2024-02-01T04:46:25.945Z,2.90
2024-02-01T04:48:53.120Z,2.90
2024-02-01T04:51:19.987Z,3.17
2024-02-01T04:53:46.749Z,2.97
2024-02-01T04:56:15.894Z,3.13
2024-02-01T04:58:43.048Z,3.00
2024-02-01T05:01:11.534Z,3.03
2024-02-01T05:03:39.358Z,3.20
2024-02-01T05:06:09.651Z,3.22
2024-02-01T05:08:36.962Z,3.30
2024-02-01T05:11:03.786Z,3.42
2024-02-01T05:13:31.773Z,3.53
2024-02-01T05:15:59.685Z,3.67
2024-02-01T05:18:27.876Z,3.50
2024-02-01T05:20:54.793Z,3.75
2024-02-01T05:23:21.621Z,3.55
2024-02-01T05:25:48.273Z,3.45
2024-02-01T05:28:14.940Z,4.10
2024-02-01T05:30:45.661Z,3.72
2024-02-01T05:33:13.007Z,3.92
2024-02-01T05:35:39.906Z,4.32
2024-02-01T05:38:09.269Z,4.22
2024-02-01T05:40:38.923Z,3.92
2024-02-01T05:43:06.001Z,4.68
2024-02-01T05:45:35.156Z,4.28
2024-02-01T05:48:02.178Z,4.68
2024-02-01T05:50:29.237Z,4.82
2024-02-01T05:52:56.817Z,4.72
2024-02-01T05:55:23.584Z,5.05
2024-02-01T05:57:50.337Z,4.85
2024-02-01T06:00:23.894Z,4.88
2024-02-01T06:02:52.411Z,4.70
2024-02-01T06:05:20.721Z,4.72
2024-02-01T06:07:47.377Z,4.65
2024-02-01T06:10:14.575Z,4.07
2024-02-01T06:12:41.237Z,4.32
2024-02-01T06:15:08.738Z,4.00
2024-02-01T06:17:36.193Z,3.97
2024-02-01T06:20:04.296Z,4.03
2024-02-01T06:22:32.291Z,4.15
2024-02-01T06:24:59.178Z,3.97
2024-02-01T06:27:25.860Z,5.07
2024-02-01T06:29:52.841Z,4.85
2024-02-01T06:32:22.789Z,5.20
2024-02-01T06:34:59.946Z,5.07
2024-02-01T06:37:31.075Z,4.93
2024-02-01T06:40:30.715Z,5.18
2024-02-01T06:43:11.369Z,4.50
2024-02-01T06:46:02.118Z,5.07
2024-02-01T06:48:42.690Z,3.78
2024-02-01T06:51:23.377Z,3.60
2024-02-01T06:54:06.835Z,4.38
2024-02-01T06:56:50.926Z,3.63
2024-02-01T06:59:55.611Z,3.05
2024-02-01T07:02:48.859Z,2.85
2024-02-01T07:05:47.223Z,2.75
2024-02-01T07:08:14.853Z,2.72
2024-02-01T07:10:46.939Z,2.72
2024-02-01T07:13:45.775Z,3.15
2024-02-01T07:16:34.863Z,3.08
2024-02-01T07:19:11.950Z,2.78
2024-02-01T07:22:04.074Z,2.45
2024-02-01T07:24:40.065Z,2.20
2024-02-01T07:27:27.165Z,2.47
2024-02-01T07:30:13.869Z,2.30
2024-02-01T07:32:59.353Z,2.45
2024-02-01T07:35:45.320Z,2.55
2024-02-01T07:38:30.956Z,2.35
2024-02-01T07:41:16.233Z,3.10
2024-02-01T07:44:01.778Z,2.75
2024-02-01T07:46:47.179Z,2.40
2024-02-01T07:49:32.684Z,2.22
2024-02-01T07:52:18.344Z,2.55
2024-02-01T07:55:04.046Z,2.60
2024-02-01T07:57:37.501Z,2.30
2024-02-01T08:00:05.722Z,2.35
2024-02-01T08:02:51.260Z,2.38
2024-02-01T08:05:37.456Z,2.03
2024-02-01T08:08:05.370Z,1.85
2024-02-01T08:10:32.269Z,2.28
2024-02-01T08:13:08.607Z,2.00
2024-02-01T08:15:39.182Z,2.20
2024-02-01T08:18:12.299Z,2.00
2024-02-01T08:20:41.330Z,1.83
2024-02-01T08:23:09.801Z,2.20
2024-02-01T08:25:41.656Z,1.95
2024-02-01T08:28:12.120Z,2.10
2024-02-01T08:30:39.246Z,2.13
2024-02-01T08:33:06.354Z,2.30
2024-02-01T08:35:37.868Z,1.83
2024-02-01T08:38:05.890Z,2.58
2024-02-01T08:40:32.871Z,2.03
2024-02-01T08:42:59.904Z,2.35
2024-02-01T08:45:31.144Z,2.08
2024-02-01T08:48:04.576Z,2.10
2024-02-01T08:50:35.646Z,2.40
2024-02-01T08:53:03.101Z,2.50
2024-02-01T08:55:32.157Z,2.50
2024-02-01T08:58:09.397Z,2.22
2024-02-01T09:00:37.642Z,2.67
2024-02-01T09:03:07.267Z,2.47
2024-02-01T09:05:37.285Z,2.45
2024-02-01T09:08:06.316Z,2.65
2024-02-01T09:10:36.919Z,2.65
2024-02-01T09:13:03.929Z,2.53
2024-02-01T09:15:34.223Z,2.75
2024-02-01T09:18:01.266Z,2.60
2024-02-01T09:20:28.559Z,2.60
2024-02-01T09:22:56.777Z,2.65
2024-02-01T09:25:25.898Z,2.25
2024-02-01T09:27:54.710Z,3.03
2024-02-01T09:30:24.083Z,2.55
2024-02-01T09:32:52.539Z,2.58
2024-02-01T09:35:20.547Z,2.95
2024-02-01T09:37:52.435Z,3.00
2024-02-01T09:40:21.665Z,3.30
2024-02-01T09:42:50.286Z,3.08
2024-02-01T09:45:19.553Z,3.28
2024-02-01T09:47:49.432Z,3.53
2024-02-01T09:50:24.760Z,3.42
2024-02-01T09:52:52.654Z,2.15
2024-02-01T09:55:23.305Z,3.05
2024-02-01T09:57:53.490Z,3.15
2024-02-01T10:00:24.284Z,2.97
2024-02-01T10:02:58.110Z,2.80
2024-02-01T10:05:25.057Z,2.78
2024-02-01T10:07:55.933Z,3.30
2024-02-01T10:10:22.873Z,3.28
2024-02-01T10:12:53.001Z,2.85
2024-02-01T10:15:28.381Z,3.08
2024-02-01T10:17:55.479Z,2.95
2024-02-01T10:20:37.587Z,2.80
2024-02-01T10:23:05.832Z,2.40
2024-02-01T10:25:40.389Z,2.85
2024-02-01T10:28:09.401Z,3.05
2024-02-01T10:30:44.441Z,3.05
2024-02-01T10:33:13.217Z,2.75
2024-02-01T10:35:41.192Z,2.88
2024-02-01T10:38:14.447Z,2.45
2024-02-01T10:41:12.241Z,2.78
2024-02-01T10:43:49.592Z,2.60
2024-02-01T10:46:29.079Z,2.42
2024-02-01T10:49:20.115Z,2.50
2024-02-01T10:51:48.387Z,2.45
2024-02-01T10:54:16.863Z,2.40
2024-02-01T10:56:43.924Z,2.33
2024-02-01T10:59:12.839Z,2.03
2024-02-01T11:01:41.396Z,2.03
2024-02-01T11:04:11.243Z,2.70
2024-02-01T11:06:47.339Z,2.83
2024-02-01T11:09:23.210Z,3.17
2024-02-01T11:11:54.099Z,2.42
2024-02-01T11:14:33.487Z,2.55
2024-02-01T11:17:03.862Z,2.80
2024-02-01T11:19:38.983Z,2.92
2024-02-01T11:22:08.585Z,2.60
2024-02-01T11:24:38.438Z,2.78
2024-02-01T11:27:29.058Z,2.70
2024-02-01T11:30:02.341Z,3.13
2024-02-01T11:32:33.629Z,3.00
2024-02-01T11:35:01.094Z,3.30
2024-02-01T11:37:29.486Z,2.40
2024-02-01T11:39:57.148Z,2.80
2024-02-01T11:42:31.802Z,2.55
2024-02-01T11:45:05.535Z,2.72
2024-02-01T11:47:35.306Z,2.63
2024-02-01T11:50:03.010Z,2.40
2024-02-01T11:52:37.777Z,2.55
2024-02-01T11:55:07.958Z,2.10
2024-02-01T11:57:34.636Z,2.15
2024-02-01T12:00:13.688Z,1.80
2024-02-01T12:02:41.961Z,2.13
2024-02-01T12:05:08.953Z,2.05
2024-02-01T12:07:35.698Z,1.48
2024-02-01T12:10:11.745Z,2.20
2024-02-01T12:12:41.098Z,1.98
2024-02-01T12:15:08.861Z,1.88
2024-02-01T12:17:49.387Z,1.92
2024-02-01T12:20:17.386Z,1.80
2024-02-01T12:22:49.365Z,1.88
2024-02-01T12:25:24.089Z,1.65
2024-02-01T12:27:51.763Z,1.80
2024-02-01T12:30:24.794Z,1.80
2024-02-01T12:32:51.870Z,1.85
2024-02-01T12:35:19.861Z,2.00
2024-02-01T12:37:47.870Z,1.50
2024-02-01T12:40:16.062Z,1.75
2024-02-01T12:42:43.667Z,1.60
2024-02-01T12:45:19.905Z,1.33
2024-02-01T12:47:51.823Z,1.48
2024-02-01T12:50:19.815Z,1.08
2024-02-01T12:52:46.795Z,1.23
2024-02-01T12:55:14.329Z,1.63
2024-02-01T12:57:41.779Z,2.03
2024-02-01T13:00:12.064Z,2.08
2024-02-01T13:02:40.057Z,1.70
2024-02-01T13:05:10.723Z,2.00
2024-02-01T13:07:38.373Z,1.88
2024-02-01T13:10:14.208Z,2.20
2024-02-01T13:12:56.136Z,2.40
2024-02-01T13:15:28.237Z,2.00
2024-02-01T13:17:55.956Z,1.83
2024-02-01T13:20:23.434Z,1.85
2024-02-01T13:22:51.929Z,1.77
2024-02-01T13:25:22.494Z,1.50
2024-02-01T13:27:51.236Z,1.85
2024-02-01T13:30:20.454Z,1.40
2024-02-01T13:32:50.479Z,1.30
2024-02-01T13:35:18.262Z,1.33
2024-02-01T13:37:47.815Z,1.10
2024-02-01T13:40:18.907Z,1.38
2024-02-01T13:42:47.065Z,1.08
2024-02-01T13:45:14.742Z,1.08
2024-02-01T13:47:52.989Z,1.00
2024-02-01T13:50:22.613Z,0.95
2024-02-01T13:52:53.363Z,1.00
2024-02-01T13:55:20.066Z,0.80
2024-02-01T13:57:46.730Z,1.00
2024-02-01T14:00:16.826Z,1.00
2024-02-01T14:02:49.144Z,0.75
2024-02-01T14:05:17.317Z,1.13
2024-02-01T14:07:44.692Z,1.30
2024-02-01T14:10:12.419Z,1.15
2024-02-01T14:12:40.231Z,0.82
2024-02-01T14:15:07.848Z,1.15
2024-02-01T14:17:34.919Z,1.00
2024-02-01T14:20:03.802Z,1.02
2024-02-01T14:22:30.872Z,1.20
2024-02-01T14:24:57.638Z,0.98
2024-02-01T14:27:28.275Z,1.00
2024-02-01T14:29:55.075Z,0.95
2024-02-01T14:32:22.606Z,0.90
2024-02-01T14:34:51.764Z,1.00
2024-02-01T14:37:19.062Z,1.20
2024-02-01T14:39:48.334Z,1.10
2024-02-01T14:42:15.210Z,0.82
2024-02-01T14:44:42.704Z,0.70
2024-02-01T14:47:11.627Z,0.60
2024-02-01T14:49:38.599Z,0.70
2024-02-01T14:52:06.749Z,0.57
2024-02-01T14:54:34.053Z,0.60
2024-02-01T14:57:00.730Z,0.80
2024-02-01T14:59:29.351Z,0.85
2024-02-01T15:01:58.876Z,1.00
2024-02-01T15:04:30.588Z,0.75
2024-02-01T15:06:57.611Z,0.90
2024-02-01T15:09:26.502Z,0.80
2024-02-01T15:11:53.285Z,0.65
2024-02-01T15:14:19.941Z,0.68
2024-02-01T15:16:48.771Z,0.85
2024-02-01T15:19:15.952Z,0.80
2024-02-01T15:21:42.936Z,0.80
2024-02-01T15:24:15.951Z,0.77
2024-02-01T15:26:44.988Z,1.20
2024-02-01T15:29:14.003Z,1.05
2024-02-01T15:31:41.849Z,1.02
2024-02-01T15:34:09.784Z,0.80
2024-02-01T15:36:38.837Z,0.90
2024-02-01T15:39:25.820Z,0.63
2024-02-01T15:42:01.524Z,0.93
2024-02-01T15:44:28.554Z,0.98
2024-02-01T15:46:58.312Z,0.80
2024-02-01T15:49:28.836Z,0.70
2024-02-01T15:52:02.595Z,0.98
2024-02-01T15:54:32.085Z,0.70
2024-02-01T15:56:59.571Z,1.23
2024-02-01T15:59:26.406Z,0.90
2024-02-01T16:01:53.097Z,1.02
2024-02-01T16:04:19.849Z,1.00
2024-02-01T16:06:46.639Z,1.20
2024-02-01T16:09:14.307Z,0.75
2024-02-01T16:11:42.251Z,0.80
2024-02-01T16:14:14.447Z,0.95
2024-02-01T16:16:45.745Z,1.40
2024-02-01T16:19:36.002Z,0.90
2024-02-01T16:22:05.279Z,0.90
2024-02-01T16:24:42.837Z,0.90
2024-02-01T16:27:38.138Z,1.02
2024-02-01T16:30:45.211Z,1.67
2024-02-01T16:33:29.512Z,0.93
2024-02-01T16:36:03.935Z,0.82
2024-02-01T16:38:34.870Z,1.25
2024-02-01T16:41:02.521Z,1.20
2024-02-01T16:43:33.164Z,1.48
2024-02-01T16:45:59.977Z,1.45
2024-02-01T16:48:27.095Z,1.50
2024-02-01T16:50:54.341Z,1.40
2024-02-01T16:53:39.470Z,1.10
2024-02-01T16:56:09.956Z,1.40
2024-02-01T16:58:45.572Z,1.52
2024-02-01T17:01:21.967Z,1.40
2024-02-01T17:03:49.583Z,1.25
2024-02-01T17:06:17.153Z,1.85
2024-02-01T17:08:49.164Z,1.30
2024-02-01T17:11:30.460Z,1.40
2024-02-01T17:14:00.286Z,1.00
2024-02-01T17:16:56.876Z,1.50
2024-02-01T17:19:24.121Z,1.80
2024-02-01T17:21:52.006Z,1.35
2024-02-01T17:24:29.884Z,1.30
2024-02-01T17:27:01.590Z,1.77
2024-02-01T17:29:28.422Z,1.45
2024-02-01T17:31:58.307Z,1.20
2024-02-01T17:34:42.617Z,2.35
2024-02-01T17:37:36.542Z,1.80
2024-02-01T17:40:11.958Z,1.60
2024-02-01T17:42:39.984Z,1.80
2024-02-01T17:45:32.974Z,1.50
2024-02-01T17:48:21.283Z,1.40
2024-02-01T17:50:48.249Z,2.05
2024-02-01T17:53:16.722Z,1.92
2024-02-01T17:55:56.422Z,2.38
2024-02-01T17:58:40.640Z,1.52
2024-02-01T18:01:23.185Z,1.90
2024-02-01T18:03:54.333Z,1.70
2024-02-01T18:06:36.015Z,2.00
2024-02-01T18:09:03.500Z,2.10
2024-02-01T18:11:30.886Z,1.52
2024-02-01T18:13:57.976Z,2.05
2024-02-01T18:16:28.695Z,1.30
2024-02-01T18:19:06.328Z,1.83
2024-02-01T18:21:35.559Z,1.30
2024-02-01T18:24:04.000Z,2.10
2024-02-01T18:26:31.363Z,1.98
2024-02-01T18:28:58.367Z,2.22
2024-02-01T18:31:25.326Z,1.60
2024-02-01T18:33:54.582Z,1.83
2024-02-01T18:36:45.037Z,2.22
2024-02-01T18:39:21.350Z,1.80
2024-02-01T18:41:51.420Z,2.42
2024-02-01T18:44:22.736Z,1.85
2024-02-01T18:46:51.218Z,1.88
2024-02-01T18:49:22.199Z,1.60
2024-02-01T18:51:57.685Z,1.98
2024-02-01T18:54:28.887Z,2.05
2024-02-01T18:56:58.578Z,2.13
2024-02-01T18:59:31.196Z,2.28
2024-02-01T19:02:02.898Z,1.75
2024-02-01T19:04:31.908Z,2.00
2024-02-01T19:07:00.042Z,2.70
2024-02-01T19:09:42.331Z,1.67
2024-02-01T19:12:24.079Z,1.70
2024-02-01T19:14:51.374Z,2.22
2024-02-01T19:17:33.532Z,1.77
2024-02-01T19:20:08.227Z,1.95
2024-02-01T19:22:42.928Z,1.73
2024-02-01T19:25:12.659Z,2.20
2024-02-01T19:27:41.633Z,1.92
2024-02-01T19:30:21.207Z,1.85
2024-02-01T19:32:53.981Z,2.30
2024-02-01T19:35:31.509Z,1.67
2024-02-01T19:38:05.617Z,2.10
2024-02-01T19:40:32.497Z,2.40
2024-02-01T19:42:59.764Z,2.03
2024-02-01T19:45:26.758Z,2.15
2024-02-01T19:47:53.803Z,1.73
2024-02-01T19:50:20.556Z,2.03
2024-02-01T19:52:47.316Z,2.15
2024-02-01T19:55:14.023Z,1.92
2024-02-01T19:57:40.864Z,2.00
2024-02-01T20:00:08.209Z,1.90
2024-02-01T20:02:42.172Z,2.10
2024-02-01T20:05:09.115Z,1.70
2024-02-01T20:07:38.024Z,1.65
2024-02-01T20:10:05.747Z,2.55
2024-02-01T20:12:32.923Z,2.22
2024-02-01T20:14:59.961Z,2.10
2024-02-01T20:17:27.337Z,2.47
2024-02-01T20:19:58.554Z,1.85
2024-02-01T20:22:25.323Z,1.33
2024-02-01T20:24:52.671Z,1.80
2024-02-01T20:27:24.947Z,1.95
2024-02-01T20:30:07.719Z,1.77
2024-02-01T20:32:34.699Z,2.20
2024-02-01T20:35:01.635Z,2.10
2024-02-01T20:37:30.300Z,2.08
2024-02-01T20:39:58.076Z,1.80
2024-02-01T20:42:25.433Z,1.80
2024-02-01T20:44:54.547Z,2.30
2024-02-01T20:47:24.505Z,2.35
2024-02-01T20:49:51.587Z,2.05
2024-02-01T20:52:22.199Z,2.03
2024-02-01T20:55:03.922Z,2.10
2024-02-01T20:57:34.766Z,1.55
2024-02-01T21:00:03.274Z,1.70
2024-02-01T21:02:39.055Z,2.38
2024-02-01T21:05:11.813Z,1.95
2024-02-01T21:07:39.538Z,2.20
2024-02-01T21:10:24.467Z,1.83
2024-02-01T21:13:02.417Z,1.75
2024-02-01T21:15:31.268Z,1.80
2024-02-01T21:17:59.965Z,2.00
2024-02-01T21:20:34.554Z,2.05
2024-02-01T21:23:08.998Z,1.77
2024-02-01T21:25:35.739Z,2.35
2024-02-01T21:28:16.548Z,2.03
2024-02-01T21:30:48.178Z,1.40
2024-02-01T21:33:18.144Z,1.90
2024-02-01T21:35:57.401Z,1.77
2024-02-01T21:38:27.777Z,2.10
2024-02-01T21:40:56.007Z,2.22
2024-02-01T21:43:23.570Z,2.00
2024-02-01T21:45:51.213Z,2.25
2024-02-01T21:48:18.351Z,2.33
2024-02-01T21:50:48.631Z,2.67
2024-02-01T21:53:15.333Z,1.92
2024-02-01T21:55:43.685Z,2.10
2024-02-01T21:58:11.998Z,1.67
2024-02-01T22:00:39.009Z,1.88
2024-02-01T22:03:06.051Z,1.58
2024-02-01T22:05:33.466Z,2.15
2024-02-01T22:08:03.188Z,2.15
2024-02-01T22:10:29.918Z,1.75
2024-02-01T22:12:56.646Z,2.20
2024-02-01T22:15:23.983Z,2.00
2024-02-01T22:17:50.816Z,1.58
2024-02-01T22:20:17.667Z,2.17
2024-02-01T22:22:44.475Z,2.28
2024-02-01T22:25:11.456Z,1.77
2024-02-01T22:27:38.361Z,2.03
2024-02-01T22:30:07.349Z,2.00
2024-02-01T22:32:35.161Z,1.80
2024-02-01T22:35:02.509Z,2.13
2024-02-01T22:37:29.194Z,1.77
2024-02-01T22:39:56.218Z,1.42
2024-02-01T22:42:23.001Z,1.90
2024-02-01T22:44:49.837Z,1.70
2024-02-01T22:47:17.735Z,1.83
2024-02-01T22:49:44.826Z,1.85
2024-02-01T22:52:11.646Z,2.13
2024-02-01T22:54:38.580Z,1.63
2024-02-01T22:57:06.343Z,2.00
2024-02-01T22:59:33.451Z,2.08
2024-02-01T23:02:01.610Z,2.00
2024-02-01T23:04:28.364Z,1.70
2024-02-01T23:06:55.571Z,1.92
2024-02-01T23:09:22.660Z,1.55
2024-02-01T23:11:49.526Z,2.38
2024-02-01T23:14:16.484Z,1.83
2024-02-01T23:16:44.100Z,1.58
2024-02-01T23:19:11.142Z,2.05
2024-02-01T23:21:40.976Z,2.20
2024-02-01T23:24:08.286Z,1.73
2024-02-01T23:26:35.073Z,2.20
2024-02-01T23:29:03.631Z,1.77
2024-02-01T23:31:30.325Z,2.10
2024-02-01T23:33:57.278Z,1.55
2024-02-01T23:36:24.130Z,1.95
2024-02-01T23:38:51.380Z,2.00
2024-02-01T23:41:18.137Z,2.28
2024-02-01T23:43:45.129Z,1.83
2024-02-01T23:46:11.867Z,1.67
2024-02-01T23:48:38.748Z,1.60
2024-02-01T23:51:05.676Z,1.92
2024-02-01T23:53:34.697Z,1.55
2024-02-01T23:56:02.760Z,2.08
2024-02-01T23:58:30.039Z,1.92
